Time;durP1;ratioP1;P1;durP2;ratioP2;P2;SDS_P1;SDS_P2;PMS_P1;PMS_P2;Temp;Humidity;BMP_temperature;BMP_pressure;BME280_temperature;BME280_humidity;BME280_pressure;Samples;Min_cycle;Max_cycle;Signal;HPM_P1;HPM_P2
2022/02/08 00:01:49;;;;;;;31.75;4.25;;;;;;;6.67;97.94;102602.78;5075506;28;20040;-74
2022/02/08 00:04:14;;;;;;;24.67;4.35;;;;;;;6.70;97.83;102599.97;5074738;28;20089;-74
2022/02/08 00:06:45;;;;;;;34.97;4.88;;;;;;;6.68;97.69;102599.19;5075771;28;20119;-75
2022/02/08 00:09:12;;;;;;;24.10;4.10;;;;;;;6.69;98.18;102598.25;5075489;28;20033;-74
2022/02/08 00:11:38;;;;;;;22.02;4.30;;;;;;;6.71;98.42;102603.47;5074754;28;20040;-74
2022/02/08 00:14:04;;;;;;;24.50;3.42;;;;;;;6.76;98.44;102598.81;5075184;28;20111;-75
2022/02/08 00:16:29;;;;;;;27.00;4.00;;;;;;;6.81;98.53;102596.81;5074343;28;20086;-75
2022/02/08 00:18:55;;;;;;;21.80;3.92;;;;;;;6.83;98.44;102592.31;5074433;28;20040;-74
2022/02/08 00:21:20;;;;;;;30.15;3.95;;;;;;;6.88;98.58;102594.75;5074320;28;20143;-75
2022/02/08 00:23:45;;;;;;;27.30;3.85;;;;;;;6.91;98.62;102604.34;5074754;28;20035;-74
2022/02/08 00:26:11;;;;;;;38.55;3.92;;;;;;;6.87;98.66;102596.53;5073066;28;20028;-75
2022/02/08 00:28:37;;;;;;;28.60;4.65;;;;;;;6.89;98.90;102594.66;5074478;28;20024;-74
2022/02/08 00:31:02;;;;;;;32.05;3.80;;;;;;;6.92;99.03;102596.31;5074288;28;20086;-74
2022/02/08 00:33:27;;;;;;;29.88;3.95;;;;;;;6.91;99.05;102594.59;5076118;28;20036;-74
2022/02/08 00:35:53;;;;;;;33.28;4.47;;;;;;;6.94;99.14;102602.41;5077132;28;20037;-74
2022/02/08 00:38:18;;;;;;;27.98;3.53;;;;;;;6.97;99.15;102601.41;5074421;28;20050;-75
2022/02/08 00:40:47;;;;;;;20.25;3.28;;;;;;;6.96;99.34;102595.25;5074514;28;20025;-74
2022/02/08 00:43:13;;;;;;;29.30;4.43;;;;;;;7.02;99.44;102602.06;5072849;28;20432;-74
2022/02/08 00:45:57;;;;;;;22.02;3.63;;;;;;;7.02;99.26;102600.25;5074022;28;20063;-75
2022/02/08 00:48:42;;;;;;;23.20;4.05;;;;;;;7.04;99.37;102602.81;5074132;28;20413;-75
2022/02/08 00:51:09;;;;;;;20.85;3.50;;;;;;;7.07;99.26;102598.22;5073566;28;20150;-75
2022/02/08 00:53:35;;;;;;;25.25;4.45;;;;;;;7.09;99.37;102594.66;5073966;28;20058;-74
2022/02/08 00:56:01;;;;;;;18.35;4.32;;;;;;;7.13;99.45;102590.94;5073842;28;20044;-75
2022/02/08 00:58:26;;;;;;;22.13;3.50;;;;;;;7.16;99.32;102588.16;5073361;28;20393;-74
2022/02/08 01:00:52;;;;;;;21.15;4.28;;;;;;;7.17;99.44;102593.38;5073691;28;20029;-75
2022/02/08 01:03:17;;;;;;;18.17;3.58;;;;;;;7.18;99.33;102596.84;5073632;28;20109;-75
2022/02/08 01:05:48;;;;;;;29.25;4.32;;;;;;;7.18;99.47;102594.22;5073345;28;20435;-74
2022/02/08 01:08:14;;;;;;;23.95;3.75;;;;;;;7.19;99.40;102601.22;5074006;28;20025;-75
2022/02/08 01:10:41;;;;;;;20.40;3.30;;;;;;;7.21;99.48;102599.34;5073670;28;20036;-74
2022/02/08 01:13:09;;;;;;;27.00;4.28;;;;;;;7.26;99.71;102589.41;5073622;28;20449;-75
2022/02/08 01:15:35;;;;;;;17.08;3.75;;;;;;;7.29;99.51;102602.50;5073037;28;20033;-75
2022/02/08 01:18:01;;;;;;;25.70;4.07;;;;;;;7.31;99.48;102586.53;5073716;28;20116;-75
2022/02/08 01:20:34;;;;;;;26.67;4.10;;;;;;;7.33;99.38;102582.00;5073132;28;20020;-75
2022/02/08 01:23:04;;;;;;;22.73;4.10;;;;;;;7.32;99.28;102585.63;5073486;28;20083;-74
2022/02/08 01:25:35;;;;;;;25.67;4.80;;;;;;;7.31;99.52;102590.03;5073240;28;20027;-74
2022/02/08 01:28:12;;;;;;;28.88;4.43;;;;;;;7.31;99.47;102586.53;5073248;28;20111;-74
2022/02/08 01:30:55;;;;;;;29.48;4.15;;;;;;;7.28;99.49;102573.44;5073123;28;20068;-74
2022/02/08 01:36:22;;;;;;;28.38;3.85;;;;;;;7.28;99.59;102576.94;5073688;28;20040;-74
2022/02/08 01:38:41;;;;;;;26.00;3.92;;;;;;;7.29;99.92;102588.41;5072846;28;20465;-74
2022/02/08 01:41:28;;;;;;;28.33;3.92;;;;;;;7.30;99.99;102585.69;5072989;28;20368;-75
2022/02/08 01:48:52;;;;;;;30.25;4.43;;;;;;;7.36;100.00;102595.09;5073279;28;20079;-75
2022/02/08 01:51:17;;;;;;;33.20;4.97;;;;;;;7.36;100.00;102598.63;5072775;28;20036;-75
2022/02/08 01:53:43;;;;;;;21.92;4.20;;;;;;;7.37;99.92;102607.44;5072889;28;20411;-73
2022/02/08 01:56:10;;;;;;;27.52;4.70;;;;;;;7.37;99.93;102612.72;5072658;28;20029;-75
2022/02/08 01:58:35;;;;;;;27.38;4.47;;;;;;;7.37;100.00;102605.63;5072854;28;20033;-74
2022/02/08 02:01:00;;;;;;;26.33;4.43;;;;;;;7.35;100.00;102602.19;5072514;28;20063;-74
2022/02/08 02:03:26;;;;;;;27.95;4.93;;;;;;;7.36;100.00;102600.41;5054203;28;20056;-74
2022/02/08 02:05:52;;;;;;;23.77;5.28;;;;;;;7.36;100.00;102611.88;5073620;28;20037;-74
2022/02/08 02:08:18;;;;;;;27.08;5.40;;;;;;;7.40;100.00;102612.56;5072996;28;20028;-74
2022/02/08 02:10:43;;;;;;;24.92;4.50;;;;;;;7.40;100.00;102613.44;5072994;28;20391;-74
2022/02/08 02:13:56;;;;;;;18.02;4.45;;;;;;;7.42;100.00;102618.66;5072912;28;20032;-75
2022/02/08 02:15:55;;;;;;;25.63;5.10;;;;;;;7.44;100.00;102606.19;5061789;28;20093;-74
2022/02/08 02:18:20;;;;;;;23.98;5.03;;;;;;;7.43;100.00;102599.16;5072837;28;20032;-75
2022/02/08 02:20:45;;;;;;;24.00;4.63;;;;;;;7.44;100.00;102595.59;5072440;28;20392;-74
2022/02/08 02:23:11;;;;;;;22.75;4.47;;;;;;;7.45;100.00;102599.97;5072955;28;20189;-75
2022/02/08 02:25:36;;;;;;;26.65;3.58;;;;;;;7.47;99.87;102602.53;5072422;28;20469;-75
2022/02/08 02:28:05;;;;;;;23.80;4.25;;;;;;;7.45;99.76;102601.75;5072565;28;20060;-74
2022/02/08 02:30:32;;;;;;;17.67;3.60;;;;;;;7.46;99.74;102606.97;5072424;28;20458;-74
2022/02/08 02:32:59;;;;;;;20.17;3.65;;;;;;;7.47;99.54;102613.13;5072493;28;20032;-74
2022/02/08 02:35:26;;;;;;;18.83;3.63;;;;;;;7.48;99.60;102609.53;5073032;28;20124;-75
2022/02/08 02:37:55;;;;;;;30.98;4.40;;;;;;;7.48;99.34;102612.19;5072377;28;20043;-74
2022/02/08 02:40:22;;;;;;;22.95;4.20;;;;;;;7.47;99.24;102607.84;5072406;28;20032;-74
2022/02/08 02:42:49;;;;;;;25.35;4.30;;;;;;;7.46;99.30;102606.97;5072319;28;20039;-74
2022/02/08 02:45:15;;;;;;;23.42;3.53;;;;;;;7.42;99.45;102600.13;5072680;28;20086;-75
2022/02/08 02:47:40;;;;;;;19.92;4.05;;;;;;;7.46;99.46;102601.66;5072635;28;20032;-75
2022/02/08 02:50:09;;;;;;;17.27;3.28;;;;;;;7.47;99.34;102599.91;5072247;28;20033;-75
2022/02/08 02:52:35;;;;;;;21.48;4.03;;;;;;;7.49;99.21;102600.66;5071912;28;20419;-74
2022/02/08 02:55:00;;;;;;;24.90;3.88;;;;;;;7.52;98.98;102592.56;5072849;28;20116;-75
2022/02/08 02:57:27;;;;;;;18.27;3.70;;;;;;;7.53;98.79;102603.09;5071958;28;20033;-75
2022/02/08 03:00:02;;;;;;;20.88;3.53;;;;;;;7.56;98.66;102599.44;5071971;28;20040;-75
2022/02/08 03:02:41;;;;;;;22.65;4.10;;;;;;;7.56;98.59;102599.44;5072125;28;20037;-74
2022/02/08 03:05:39;;;;;;;20.50;3.92;;;;;;;7.57;98.42;102588.75;5072105;28;20060;-75
2022/02/08 03:18:48;;;;;;;22.88;3.63;;;;;;;7.54;97.98;102594.22;5075920;28;20488;-75
2022/02/08 03:21:14;;;;;;;22.08;3.47;;;;;;;7.60;97.60;102587.75;5075532;28;20040;-75
2022/02/08 03:23:40;;;;;;;23.00;4.40;;;;;;;7.60;97.31;102587.75;5075780;28;20076;-75
2022/02/08 03:26:06;;;;;;;13.68;2.75;;;;;;;7.60;97.04;102593.06;5075614;28;20040;-75
2022/02/08 03:28:32;;;;;;;15.43;2.97;;;;;;;7.62;96.54;102588.53;5075425;28;20070;-75
2022/02/08 03:30:58;;;;;;;16.88;3.63;;;;;;;7.64;96.10;102588.44;5075450;28;20119;-75
2022/02/08 03:33:25;;;;;;;17.80;3.40;;;;;;;7.65;95.94;102592.81;5075504;28;20107;-76
2022/02/08 03:35:53;;;;;;;24.13;3.10;;;;;;;7.67;95.24;102605.03;5075310;28;20051;-75
2022/02/08 03:38:24;;;;;;;21.27;3.40;;;;;;;7.69;95.09;102599.69;5075205;28;20036;-75
2022/02/08 03:40:52;;;;;;;15.52;3.05;;;;;;;7.68;94.29;102596.16;5075259;28;20063;-75
2022/02/08 03:45:51;;;;;;;18.05;3.05;;;;;;;7.71;93.42;102592.50;5075414;28;20091;-75
2022/02/08 03:48:19;;;;;;;19.65;3.42;;;;;;;7.70;93.18;102618.16;5075633;28;20041;-75
2022/02/08 03:50:50;;;;;;;13.07;2.53;;;;;;;7.73;92.43;102606.53;5075633;28;20028;-75
2022/02/08 03:53:16;;;;;;;21.48;3.05;;;;;;;7.75;91.82;102604.69;5075060;28;20477;-74
2022/02/08 03:55:41;;;;;;;15.30;2.85;;;;;;;7.79;91.43;102608.00;5075271;28;20122;-74
2022/02/08 03:58:06;;;;;;;13.43;2.88;;;;;;;7.84;90.68;102621.91;5075049;28;20461;-74
2022/02/08 04:00:40;;;;;;;15.65;2.53;;;;;;;7.82;90.50;102613.16;5074791;28;20089;-74
2022/02/08 04:03:06;;;;;;;18.15;3.25;;;;;;;7.81;90.73;102622.03;5074858;28;20135;-74
2022/02/08 04:05:36;;;;;;;13.98;2.55;;;;;;;7.82;90.22;102611.34;5074761;28;20036;-75
2022/02/08 04:08:07;;;;;;;20.45;3.00;;;;;;;7.87;89.57;102619.09;5074912;28;20070;-74
2022/02/08 04:10:32;;;;;;;17.40;2.70;;;;;;;7.89;89.57;102620.72;5074490;28;20033;-74
2022/02/08 04:15:56;;;;;;;17.65;2.65;;;;;;;7.95;88.90;102619.56;5074601;28;20037;-74
2022/02/08 04:32:10;;;;;;;11.98;2.80;;;;;;;7.91;89.59;102624.16;5074722;28;20105;-73
2022/02/08 04:42:20;;;;;;;19.75;2.60;;;;;;;7.95;89.25;102628.34;5074313;28;20121;-74
2022/02/08 04:45:02;;;;;;;14.85;3.15;;;;;;;7.94;89.15;102617.81;5073998;28;20078;-74
2022/02/08 04:47:36;;;;;;;11.50;2.58;;;;;;;7.94;89.04;102618.72;5073754;28;20089;-74
2022/02/08 04:50:03;;;;;;;16.70;2.72;;;;;;;7.98;88.64;102627.34;5073958;28;20037;-74
2022/02/08 04:52:30;;;;;;;17.08;3.05;;;;;;;7.96;88.51;102618.63;5072495;28;20446;-74
2022/02/08 04:57:34;;;;;;;14.65;3.55;;;;;;;8.02;87.52;102615.66;5073993;28;20365;-74
2022/02/08 05:00:47;;;;;;;19.75;2.67;;;;;;;8.01;87.29;102615.75;5074375;28;20056;-74
2022/02/08 05:36:04;;;;;;;17.70;3.17;;;;;;;8.11;84.82;102609.88;5073362;28;20032;-74
2022/02/08 05:43:49;;;;;;;6.78;2.13;;;;;;;8.11;85.18;102609.88;5073190;28;20044;-75
2022/02/08 05:46:45;;;;;;;15.93;2.67;;;;;;;8.14;85.33;102605.38;5073400;28;20461;-74
2022/02/08 05:49:07;;;;;;;16.40;2.60;;;;;;;8.17;85.22;102608.69;5072729;28;20094;-74
2022/02/08 05:54:17;;;;;;;11.65;2.10;;;;;;;8.20;85.14;102597.94;5073360;28;20064;-74
2022/02/08 05:56:46;;;;;;;12.45;2.30;;;;;;;8.23;84.75;102612.84;5073221;28;20036;-76
2022/02/08 05:59:11;;;;;;;14.43;2.40;;;;;;;8.23;84.57;102597.78;5072804;28;20298;-74
2022/02/08 06:01:36;;;;;;;13.55;2.55;;;;;;;8.24;84.29;102588.88;5071251;28;20041;-75
2022/02/08 06:04:02;;;;;;;15.18;2.53;;;;;;;8.25;83.89;102593.22;5072723;28;20082;-74
2022/02/08 06:06:30;;;;;;;11.85;2.50;;;;;;;8.28;83.70;102608.13;5072174;28;20418;-75
2022/02/08 06:08:56;;;;;;;12.15;2.78;;;;;;;8.27;83.98;102591.38;5072746;28;20074;-74
2022/02/08 06:11:23;;;;;;;14.77;2.83;;;;;;;8.24;83.53;102591.53;5072826;28;20036;-73
2022/02/08 06:13:51;;;;;;;18.50;3.00;;;;;;;8.25;83.75;102597.69;5073185;28;20037;-75
2022/02/08 06:16:18;;;;;;;14.00;2.75;;;;;;;8.23;83.58;102594.28;5072815;28;20040;-73
2022/02/08 06:18:45;;;;;;;13.13;2.28;;;;;;;8.27;82.95;102591.38;5071352;28;20032;-74
2022/02/08 06:21:11;;;;;;;23.65;3.10;;;;;;;8.29;83.09;102591.28;5072402;28;20037;-74
2022/02/08 06:23:36;;;;;;;20.08;2.85;;;;;;;8.25;83.33;102600.34;5073201;28;20037;-77
2022/02/08 06:26:02;;;;;;;8.55;2.05;;;;;;;8.27;82.86;102601.97;5072617;28;20031;-74
2022/02/08 06:28:28;;;;;;;17.60;2.50;;;;;;;8.28;82.77;102602.81;5072471;28;20028;-74
2022/02/08 06:30:53;;;;;;;12.30;2.33;;;;;;;8.32;82.57;102611.50;5071981;28;20036;-74
2022/02/08 06:33:20;;;;;;;15.85;2.20;;;;;;;8.31;82.74;102605.31;5072252;28;20039;-73
2022/02/08 06:35:45;;;;;;;14.88;2.33;;;;;;;8.32;82.58;102615.00;5072167;28;20064;-73
2022/02/08 06:38:14;;;;;;;12.88;2.58;;;;;;;8.35;82.44;102614.84;5072394;28;20113;-72
2022/02/08 06:40:41;;;;;;;16.50;2.88;;;;;;;8.36;82.30;102607.72;5072124;28;20037;-74
2022/02/08 06:43:07;;;;;;;13.77;2.35;;;;;;;8.37;82.24;102614.75;5072072;28;20040;-73
2022/02/08 06:45:33;;;;;;;15.23;2.70;;;;;;;8.39;82.11;102615.50;5072454;28;20029;-74
2022/02/08 06:48:00;;;;;;;15.98;2.55;;;;;;;8.39;81.99;102620.81;5072093;28;20036;-74
2022/02/08 06:50:26;;;;;;;13.95;2.75;;;;;;;8.38;82.06;102629.72;5074511;28;20391;-74
2022/02/08 06:52:52;;;;;;;15.57;2.40;;;;;;;8.37;81.97;102623.56;5075763;28;20111;-76
2022/02/08 06:55:18;;;;;;;16.88;2.60;;;;;;;8.40;81.84;102630.50;5076493;28;20044;-74
2022/02/08 07:00:38;;;;;;;12.30;2.30;;;;;;;8.30;81.70;102628.34;5075946;28;20063;-72
2022/02/08 07:03:14;;;;;;;15.18;2.97;;;;;;;8.27;81.76;102635.56;5075960;28;20279;-73
2022/02/08 07:05:41;;;;;;;10.32;2.88;;;;;;;8.21;82.34;102638.56;5075660;28;20469;-73
2022/02/08 07:08:07;;;;;;;11.77;2.25;;;;;;;8.19;82.65;102632.50;5075624;28;20119;-73
2022/02/08 07:10:33;;;;;;;10.00;2.40;;;;;;;8.19;82.25;102622.72;5075482;28;20036;-73
2022/02/08 07:12:59;;;;;;;15.27;2.60;;;;;;;8.18;82.27;102636.94;5075017;28;20039;-73
2022/02/08 07:15:25;;;;;;;12.38;2.30;;;;;;;8.17;82.01;102637.03;5075684;28;20032;-73
2022/02/08 07:17:50;;;;;;;13.88;2.42;;;;;;;8.14;82.28;102639.84;5075869;28;20039;-75
2022/02/08 07:20:17;;;;;;;13.27;2.42;;;;;;;8.12;82.43;102642.53;5075571;28;20032;-76
2022/02/08 07:22:43;;;;;;;14.50;2.22;;;;;;;8.08;82.61;102651.59;5075528;28;20094;-75
2022/02/08 07:25:08;;;;;;;12.88;1.95;;;;;;;7.98;82.82;102656.50;5075201;28;20383;-75
2022/02/08 07:27:34;;;;;;;14.25;2.95;;;;;;;7.89;83.73;102649.03;5075189;28;20044;-74
2022/02/08 07:30:07;;;;;;;13.15;2.03;;;;;;;7.84;83.60;102651.06;5075874;28;20386;-74
2022/02/08 07:32:36;;;;;;;9.73;2.13;;;;;;;7.77;84.05;102659.28;5075202;28;20040;-76
2022/02/08 07:35:28;;;;;;;11.43;2.70;;;;;;;7.81;84.05;102653.84;5075238;28;20211;-75
2022/02/08 07:38:08;;;;;;;14.32;2.00;;;;;;;7.82;84.33;102661.72;5074973;28;20037;-75
2022/02/08 07:43:01;;;;;;;13.85;2.28;;;;;;;7.87;84.53;102667.66;5074985;28;20043;-74
2022/02/08 07:45:27;;;;;;;14.93;2.50;;;;;;;7.91;84.50;102669.22;5074965;28;20029;-74
2022/02/08 07:47:52;;;;;;;16.27;2.20;;;;;;;7.99;84.17;102673.28;5074734;28;20082;-73
2022/02/08 07:50:26;;;;;;;11.43;2.13;;;;;;;8.03;84.14;102665.09;5074775;28;20131;-72
2022/02/08 07:52:52;;;;;;;13.65;2.20;;;;;;;8.06;84.08;102674.66;5075310;28;20116;-73
2022/02/08 07:55:19;;;;;;;10.27;2.10;;;;;;;8.10;83.73;102671.78;5073476;28;20064;-73
2022/02/08 07:57:44;;;;;;;11.27;1.95;;;;;;;8.13;83.74;102670.78;5074749;28;20024;-72
2022/02/08 08:00:10;;;;;;;6.93;1.92;;;;;;;8.17;83.87;102672.34;5074862;28;20555;-73
2022/02/08 08:02:36;;;;;;;11.55;2.75;;;;;;;8.24;83.87;102664.91;5073790;28;20040;-73
2022/02/08 08:05:03;;;;;;;7.65;2.05;;;;;;;8.32;83.31;102659.25;5074455;28;20032;-73
2022/02/08 08:07:28;;;;;;;12.30;2.17;;;;;;;8.39;83.03;102666.78;5074802;28;20095;-73
2022/02/08 08:09:53;;;;;;;18.70;2.67;;;;;;;8.42;82.75;102677.25;5074586;28;20036;-73
2022/02/08 08:12:21;;;;;;;15.27;2.25;;;;;;;8.42;82.64;102661.31;5074176;28;20487;-72
2022/02/08 08:14:46;;;;;;;15.40;2.35;;;;;;;8.37;82.83;102667.81;5074459;28;20036;-73
2022/02/08 08:19:40;;;;;;;10.55;1.92;;;;;;;8.20;83.79;102666.88;5074331;28;20389;-73
2022/02/08 08:22:10;;;;;;;12.88;2.20;;;;;;;8.13;84.16;102665.47;5074167;28;20045;-73
2022/02/08 08:24:36;;;;;;;13.45;2.17;;;;;;;8.10;84.35;102665.63;5074181;28;20445;-73
2022/02/08 08:27:02;;;;;;;15.00;2.67;;;;;;;8.10;84.35;102666.47;5074246;28;20036;-74
2022/02/08 08:29:27;;;;;;;16.45;3.05;;;;;;;8.14;84.44;102675.16;5074259;28;20108;-73
2022/02/08 08:31:52;;;;;;;14.32;2.40;;;;;;;8.20;84.03;102674.84;5074862;28;20060;-74
2022/02/08 08:34:18;;;;;;;17.30;2.75;;;;;;;8.28;83.74;102677.09;5074144;28;20098;-73
2022/02/08 08:36:46;;;;;;;14.93;3.20;;;;;;;8.34;83.56;102676.75;5073890;28;20032;-74
2022/02/08 08:39:12;;;;;;;16.65;2.78;;;;;;;8.41;83.13;102688.78;5073907;28;20033;-74
2022/02/08 08:41:45;;;;;;;12.30;2.25;;;;;;;8.47;83.13;102688.47;5074260;28;20116;-73
2022/02/08 08:44:51;;;;;;;16.67;2.40;;;;;;;8.50;82.41;102686.63;5073765;28;20468;-75
2022/02/08 08:50:03;;;;;;;21.67;2.75;;;;;;;8.54;82.95;102694.34;5074088;28;20047;-71
2022/02/08 08:52:33;;;;;;;11.00;2.50;;;;;;;8.63;82.43;102685.03;5074181;28;20040;-73
2022/02/08 08:54:59;;;;;;;26.63;2.55;;;;;;;8.72;82.01;102689.84;5073980;28;20040;-72
2022/02/08 08:57:26;;;;;;;14.30;2.67;;;;;;;8.82;81.76;102700.81;5073915;28;20082;-74
2022/02/08 08:59:52;;;;;;;14.88;2.40;;;;;;;8.86;81.31;102693.56;5073872;28;20032;-74
2022/02/08 09:02:17;;;;;;;17.38;2.58;;;;;;;8.96;80.78;102694.78;5074132;28;20086;-73
2022/02/08 09:04:44;;;;;;;12.70;3.00;;;;;;;8.96;81.15;102698.28;5073393;28;20086;-73
2022/02/08 09:07:11;;;;;;;8.95;2.55;;;;;;;9.01;80.81;102700.69;5073874;28;20113;-73
2022/02/08 09:09:40;;;;;;;13.02;2.60;;;;;;;9.07;80.54;102696.84;5073638;28;20128;-73
2022/02/08 09:17:38;;;;;;;11.43;2.40;;;;;;;9.20;79.69;102713.84;5073889;28;20365;-73
2022/02/08 09:26:15;;;;;;;13.02;2.42;;;;;;;9.81;76.07;102716.66;5073941;28;20097;-73
2022/02/08 09:28:28;;;;;;;15.52;2.58;;;;;;;9.98;74.57;102715.66;5055477;28;20485;-73
2022/02/08 09:31:00;;;;;;;12.32;2.70;;;;;;;9.97;74.83;102714.81;5073469;28;20105;-73
2022/02/08 09:33:26;;;;;;;14.63;2.80;;;;;;;10.19;74.45;102714.38;5073548;28;20024;-72
2022/02/08 09:35:51;;;;;;;12.13;2.13;;;;;;;10.51;73.41;102709.00;5072896;28;20123;-70
2022/02/08 09:38:18;;;;;;;17.92;3.03;;;;;;;10.63;72.21;102722.50;5073808;28;20028;-71
2022/02/08 09:40:45;;;;;;;8.80;1.90;;;;;;;10.59;72.08;102701.38;5073144;28;20042;-72
2022/02/08 09:43:12;;;;;;;17.40;2.45;;;;;;;10.61;72.61;102708.44;5073206;28;20037;-74
2022/02/08 09:45:38;;;;;;;12.55;2.03;;;;;;;10.56;72.02;102708.72;5073703;28;20090;-73
2022/02/08 09:50:52;;;;;;;11.15;1.90;;;;;;;10.70;70.50;102710.53;5044129;28;20048;-73
2022/02/08 09:53:31;;;;;;;11.75;2.63;;;;;;;10.55;71.86;102707.00;5073150;28;20058;-73
2022/02/08 09:55:57;;;;;;;9.70;2.08;;;;;;;10.65;72.20;102705.47;5073156;28;20409;-73
2022/02/08 09:58:23;;;;;;;11.27;2.05;;;;;;;10.77;70.58;102709.19;5073200;28;20036;-75
2022/02/08 10:00:48;;;;;;;17.33;2.17;;;;;;;10.67;71.20;102713.38;5072987;28;20028;-74
2022/02/08 10:03:19;;;;;;;9.48;2.00;;;;;;;10.57;71.51;102724.59;5072894;28;20032;-73
2022/02/08 10:05:52;;;;;;;;;;;;;;;10.48;71.49;102732.25;5073784;28;20398;-74
2022/02/08 10:08:18;;;;;;;10.02;2.15;;;;;;;10.43;71.58;102721.91;5073026;28;19912;-74
2022/02/08 10:10:45;;;;;;;12.13;2.47;;;;;;;10.23;71.72;102726.56;5072936;28;20032;-74
2022/02/08 10:13:45;;;;;;;12.77;2.30;;;;;;;10.20;72.87;102736.56;5072890;28;20033;-72
2022/02/08 10:19:38;;;;;;;9.18;1.88;;;;;;;10.03;72.91;102730.41;5073230;28;20128;-72
2022/02/08 10:22:09;;;;;;;11.60;2.92;;;;;;;10.05;72.93;102725.84;5072555;28;20476;-72
2022/02/08 10:24:38;;;;;;;12.23;2.42;;;;;;;10.16;72.89;102735.00;5072314;28;20052;-73
2022/02/08 10:27:26;;;;;;;10.15;1.80;;;;;;;10.21;71.72;102723.16;5076673;28;20085;-73
2022/02/08 10:40:05;;;;;;;10.15;1.85;;;;;;;10.86;69.76;102716.63;5076491;28;20041;-74
2022/02/08 10:42:31;;;;;;;10.25;1.77;;;;;;;11.02;68.71;102713.00;5076581;28;20066;-73
2022/02/08 10:44:58;;;;;;;11.95;2.00;;;;;;;11.01;68.62;102721.94;5076307;28;20032;-73
2022/02/08 10:47:41;;;;;;;12.20;2.05;;;;;;;11.15;68.19;102713.97;5076446;28;20028;-73
2022/02/08 10:50:08;;;;;;;14.02;2.42;;;;;;;11.27;67.71;102713.16;5077034;28;20162;-73
2022/02/08 10:52:36;;;;;;;12.18;2.47;;;;;;;11.42;67.02;102715.78;5076406;28;20032;-74
2022/02/08 10:55:12;;;;;;;15.63;2.90;;;;;;;11.58;67.38;102705.84;5076059;28;20036;-72
2022/02/08 11:00:39;;;;;;;9.00;2.22;;;;;;;12.09;66.29;102707.00;5052296;28;20036;-74
2022/02/08 11:03:10;;;;;;;15.80;3.40;;;;;;;12.48;63.28;102698.09;5076672;28;20029;-75
2022/02/08 11:21:08;;;;;;;12.02;2.80;;;;;;;11.33;67.57;102703.94;5075892;28;20115;-72
2022/02/08 11:23:47;;;;;;;14.70;2.08;;;;;;;11.61;65.28;102700.34;5075488;28;20053;-74
2022/02/08 11:26:29;;;;;;;10.52;2.33;;;;;;;11.59;65.89;102707.56;5076299;28;20048;-73
2022/02/08 11:28:55;;;;;;;9.55;1.90;;;;;;;11.85;64.56;102704.97;5075709;28;20165;-71
2022/02/08 11:31:28;;;;;;;11.98;2.17;;;;;;;12.02;63.87;102695.03;5075831;28;20078;-73
2022/02/08 11:38:59;;;;;;;10.43;2.40;;;;;;;12.20;64.02;102708.97;5075663;28;20063;-73
2022/02/08 11:53:40;;;;;;;9.85;2.35;;;;;;;12.64;62.50;102689.84;5074846;28;20182;-73
2022/02/08 12:01:31;;;;;;;12.00;2.53;;;;;;;12.78;61.13;102682.69;5074968;28;20396;-73
2022/02/08 12:04:18;;;;;;;13.02;2.03;;;;;;;12.69;61.05;102685.06;5074979;28;20063;-74
2022/02/08 12:07:03;;;;;;;7.75;1.90;;;;;;;12.67;62.18;102692.34;5074910;28;20044;-74
2022/02/08 12:09:45;;;;;;;12.48;2.40;;;;;;;12.70;60.66;102702.81;5075171;28;20032;-74
2022/02/08 12:32:29;;;;;;;11.73;2.83;;;;;;;12.68;61.61;102690.50;5074409;28;20389;-74
2022/02/08 12:48:33;;;;;;;11.20;2.40;;;;;;;12.49;62.27;102691.78;5074003;28;20123;-74
2022/02/08 12:49:01;;;;;;;14.60;2.63;;;;;;;12.04;63.19;102693.13;5073378;28;20047;-73
2022/02/08 13:02:08;;;;;;;15.77;2.83;;;;;;;11.11;68.18;102701.78;5073868;28;20469;-73
2022/02/08 14:12:03;;;;;;;15.02;2.78;;;;;;;12.37;61.70;102673.94;5073000;28;20094;-74
2022/02/08 14:22:33;;;;;;;10.77;2.20;;;;;;;11.73;64.17;102674.63;5071808;28;20057;-74
2022/02/08 14:30:24;;;;;;;11.10;2.42;;;;;;;11.82;64.15;102695.38;5072144;28;20292;-75
2022/02/08 14:49:57;;;;;;;19.27;2.83;;;;;;;11.62;64.49;102686.03;5072264;28;20099;-73
2022/02/08 15:05:38;;;;;;;9.68;2.20;;;;;;;9.98;71.36;102700.56;5071804;28;20468;-73
2022/02/08 15:08:48;;;;;;;11.23;2.70;;;;;;;9.85;72.31;102689.81;5070693;28;20040;-74
2022/02/08 15:10:55;;;;;;;12.20;2.53;;;;;;;9.78;72.74;102690.22;5065222;28;20044;-73
2022/02/08 15:13:25;;;;;;;14.63;2.47;;;;;;;9.72;72.95;102699.44;5075207;28;20029;-73
2022/02/08 15:16:07;;;;;;;9.18;1.85;;;;;;;9.59;73.58;102695.75;5075263;28;20039;-73
2022/02/08 15:18:33;;;;;;;16.33;2.10;;;;;;;9.52;74.02;102701.41;5075331;28;20033;-73
2022/02/08 15:21:00;;;;;;;11.98;2.40;;;;;;;9.53;74.47;102697.81;5075531;28;20033;-73
2022/02/08 15:23:28;;;;;;;15.10;2.85;;;;;;;9.51;74.45;102710.31;5075419;28;20143;-73
2022/02/08 15:25:56;;;;;;;14.55;2.78;;;;;;;9.47;74.51;102699.97;5075629;28;20036;-73
2022/02/08 15:28:23;;;;;;;13.60;2.88;;;;;;;9.43;74.61;102704.56;5075302;28;20029;-72
2022/02/08 15:30:49;;;;;;;15.45;2.58;;;;;;;9.36;74.79;102695.25;5075014;28;20420;-75
2022/02/08 15:33:15;;;;;;;11.70;2.30;;;;;;;9.35;75.18;102701.50;5074547;28;20123;-73
2022/02/08 15:35:40;;;;;;;12.20;2.42;;;;;;;9.34;75.43;102705.09;5074540;28;20383;-74
2022/02/08 15:38:06;;;;;;;11.18;2.13;;;;;;;9.37;75.29;102698.75;5074260;28;20051;-74
2022/02/08 15:40:32;;;;;;;14.77;2.33;;;;;;;9.41;75.10;102690.53;5074370;28;20365;-73
2022/02/08 15:42:58;;;;;;;14.18;2.25;;;;;;;9.39;75.07;102683.56;5074725;28;20468;-74
2022/02/08 15:45:37;;;;;;;8.50;2.10;;;;;;;9.34;75.18;102691.81;5073935;28;20082;-75
2022/02/08 15:48:07;;;;;;;16.55;3.00;;;;;;;9.28;75.05;102673.56;5074048;28;20047;-74
2022/02/08 15:50:49;;;;;;;10.77;2.40;;;;;;;9.16;75.68;102681.25;5074525;28;20036;-73
2022/02/08 15:53:31;;;;;;;14.13;2.38;;;;;;;9.11;75.99;102685.13;5074223;28;20196;-74
2022/02/08 16:01:09;;;;;;;17.35;2.72;;;;;;;8.83;77.42;102692.78;5073762;28;20123;-75
2022/02/08 16:09:45;;;;;;;13.18;2.55;;;;;;;8.63;77.80;102698.31;5011955;28;20046;-74
2022/02/08 16:18:02;;;;;;;11.70;2.33;;;;;;;8.39;79.14;102711.88;5074117;28;20162;-75
2022/02/08 16:20:42;;;;;;;9.93;1.98;;;;;;;8.30;79.48;102702.59;5073504;28;20051;-75
2022/02/08 16:23:34;;;;;;;10.55;2.50;;;;;;;8.26;79.68;102698.38;5073269;28;20056;-75
2022/02/08 16:26:11;;;;;;;18.20;2.75;;;;;;;8.23;79.94;102709.16;5073661;28;20029;-74
2022/02/08 16:29:00;;;;;;;15.00;2.25;;;;;;;8.22;80.22;102718.03;5073747;28;20028;-75
2022/02/08 16:53:23;;;;;;;15.85;2.78;;;;;;;8.04;81.23;102729.56;5072895;28;20044;-74
2022/02/08 16:58:39;;;;;;;13.07;2.38;;;;;;;8.05;81.83;102740.09;5072907;28;20041;-74
2022/02/08 17:01:15;;;;;;;15.63;4.25;;;;;;;8.04;81.83;102732.22;5072559;28;20392;-75
2022/02/08 17:03:45;;;;;;;17.77;3.75;;;;;;;8.07;82.09;102732.06;5072144;28;20124;-75
2022/02/08 17:06:11;;;;;;;14.13;3.13;;;;;;;8.10;81.93;102746.03;5072721;28;20028;-76
2022/02/08 17:08:37;;;;;;;17.02;3.40;;;;;;;8.12;82.02;102732.69;5072005;28;20353;-76
2022/02/08 17:11:03;;;;;;;18.63;3.97;;;;;;;8.16;81.98;102739.56;5072504;28;20037;-75
2022/02/08 17:46:06;;;;;;;11.77;3.00;;;;;;;7.90;82.71;102715.22;5073087;28;20046;-76
2022/02/08 17:48:35;;;;;;;12.07;2.55;;;;;;;7.86;82.84;102718.09;5072355;28;20425;-77
2022/02/08 17:51:01;;;;;;;14.35;2.88;;;;;;;7.84;82.97;102714.66;5073040;28;20064;-82
2022/02/08 17:53:26;;;;;;;12.25;2.20;;;;;;;7.82;83.15;102711.22;5072405;28;20029;-78
2022/02/08 17:55:52;;;;;;;9.65;2.20;;;;;;;7.77;83.04;102722.03;5071983;28;20445;-78
2022/02/08 17:58:19;;;;;;;6.70;2.00;;;;;;;7.77;83.27;102714.94;5072696;28;20040;-78
2022/02/08 18:00:45;;;;;;;16.95;3.08;;;;;;;7.70;83.30;102700.31;5072533;28;20048;-77
2022/02/08 18:03:12;;;;;;;18.55;2.47;;;;;;;7.67;83.43;102699.56;5072152;28;20028;-77
2022/02/08 18:05:38;;;;;;;11.68;2.50;;;;;;;7.67;83.55;102697.78;5071305;28;20068;-76
2022/02/08 18:08:06;;;;;;;13.95;2.50;;;;;;;7.68;83.60;102702.16;5072207;28;20032;-77
2022/02/08 18:10:32;;;;;;;18.85;2.40;;;;;;;7.70;83.54;102704.72;5072159;28;20373;-78